Map

Track Data

SID SEASON NUMBER BASIN SUBBASIN NAME ISO_TIME NATURE LAT LON WMO_WIND WMO_PRES WMO_AGENCY TRACK_TYPE DIST2LAND LANDFALL IFLAG USA_AGENCY USA_ATCF_ID USA_LAT USA_LON USA_RECORD USA_STATUS USA_WIND USA_PRES USA_SSHS USA_R34_NE USA_R34_SE USA_R34_SW USA_R34_NW USA_R50_NE USA_R50_SE USA_R50_SW USA_R50_NW USA_R64_NE USA_R64_SE USA_R64_SW USA_R64_NW USA_POCI USA_ROCI USA_RMW USA_EYE TOKYO_LAT TOKYO_LON TOKYO_GRADE TOKYO_WIND TOKYO_PRES TOKYO_R50_DIR TOKYO_R50_LONG TOKYO_R50_SHORT TOKYO_R30_DIR TOKYO_R30_LONG TOKYO_R30_SHORT TOKYO_LAND CMA_LAT CMA_LON CMA_CAT CMA_WIND CMA_PRES HKO_LAT HKO_LON HKO_CAT HKO_WIND HKO_PRES NEWDELHI_LAT NEWDELHI_LON NEWDELHI_GRADE NEWDELHI_WIND NEWDELHI_PRES NEWDELHI_CI NEWDELHI_DP NEWDELHI_POCI REUNION_LAT REUNION_LON REUNION_TYPE REUNION_WIND REUNION_PRES REUNION_TNUM REUNION_CI REUNION_RMW REUNION_R34_NE REUNION_R34_SE REUNION_R34_SW REUNION_R34_NW REUNION_R50_NE REUNION_R50_SE REUNION_R50_SW REUNION_R50_NW REUNION_R64_NE REUNION_R64_SE REUNION_R64_SW REUNION_R64_NW BOM_LAT BOM_LON BOM_TYPE BOM_WIND BOM_PRES BOM_TNUM BOM_CI BOM_RMW BOM_R34_NE BOM_R34_SE BOM_R34_SW BOM_R34_NW BOM_R50_NE BOM_R50_SE BOM_R50_SW BOM_R50_NW BOM_R64_NE BOM_R64_SE BOM_R64_SW BOM_R64_NW BOM_ROCI BOM_POCI BOM_EYE BOM_POS_METHOD BOM_PRES_METHOD NADI_LAT NADI_LON NADI_CAT NADI_WIND NADI_PRES WELLINGTON_LAT WELLINGTON_LON WELLINGTON_WIND WELLINGTON_PRES DS824_LAT DS824_LON DS824_STAGE DS824_WIND DS824_PRES TD9636_LAT TD9636_LON TD9636_STAGE TD9636_WIND TD9636_PRES TD9635_LAT TD9635_LON TD9635_WIND TD9635_PRES TD9635_ROCI NEUMANN_LAT NEUMANN_LON NEUMANN_CLASS NEUMANN_WIND NEUMANN_PRES MLC_LAT MLC_LON MLC_CLASS MLC_WIND MLC_PRES USA_GUST BOM_GUST BOM_GUST_PER REUNION_GUST REUNION_GUST_PER USA_SEAHGT USA_SEARAD_NE USA_SEARAD_SE USA_SEARAD_SW USA_SEARAD_NW STORM_SPEED STORM_DIR
1965302N10102 1965 112 WP MM NOT_NAMED 1965-10-28 12:00:00 NR 9.50000 102.000 main 197 196 __________O___ -1 9.50000 102.000 1 3 308
1965302N10102 1965 112 WP MM NOT_NAMED 1965-10-28 15:00:00 NR 9.58120 101.892 main 196 195 __________P___ -1 9.58120 101.892 1 3 308
1965302N10102 1965 112 WP MM NOT_NAMED 1965-10-28 18:00:00 NR 9.67992 101.767 main 195 195 __________P___ -1 9.67992 101.767 1 4 310
1965302N10102 1965 112 WP MM NOT_NAMED 1965-10-28 21:00:00 NR 9.81368 101.609 main 205 197 __________P___ -1 9.81368 101.609 1 5 312
1965302N10102 1965 112 WP MM NOT_NAMED 1965-10-29 00:00:00 NR 10.0000 101.400 main 197 181 __________O___ -1 10.0000 101.400 1 6 313
1965302N10102 1965 112 WP MM NOT_NAMED 1965-10-29 03:00:00 NR 10.2482 101.130 main 181 149 __________P___ -1 10.2482 101.130 1 8 313
1965302N10102 1965 112 WP MM NOT_NAMED 1965-10-29 06:00:00 NR 10.5351 100.810 main 149 108 __________P___ -1 10.5351 100.810 1 9 311
1965302N10102 1965 112 WP MM NOT_NAMED 1965-10-29 09:00:00 NR 10.8294 100.461 main 108 55 __________P___ -1 10.8294 100.461 1 9 309
1965302N10102 1965 112 WP MM NOT_NAMED 1965-10-29 12:00:00 NR 11.1000 100.100 main 55 21 __________O___ -1 11.1000 100.100 1 8 305
1965302N10102 1965 112 NI BB NOT_NAMED 1965-10-29 15:00:00 NR 11.3077 99.7570 main 21 0 __________P___ -1 11.3077 99.7570 1 8 300
1965302N10102 1965 112 NI BB NOT_NAMED 1965-10-29 18:00:00 NR 11.4874 99.4072 main 0 0 __________P___ -1 11.4874 99.4072 1 8 296
1965302N10102 1965 112 NI BB NOT_NAMED 1965-10-29 21:00:00 NR 11.6483 99.0539 main 0 0 __________P___ -1 11.6483 99.0539 1 8 294
1965302N10102 1965 112 NI BB NOT_NAMED 1965-10-30 00:00:00 NR 11.8000 98.7000 main 0 0 __________O___ -1 11.8000 98.7000 1 7 294
1965302N10102 1965 112 NI BB NOT_NAMED 1965-10-30 03:00:00 NR 11.9529 98.3579 main 15 15 __________P___ -1 11.9529 98.3579 1 7 294
1965302N10102 1965 112 NI BB NOT_NAMED 1965-10-30 06:00:00 NR 12.0997 98.0147 main 58 58 __________P___ -1 12.0997 98.0147 1 7 293
1965302N10102 1965 112 NI BB NOT_NAMED 1965-10-30 09:00:00 NR 12.2466 97.6641 main 93 93 __________P___ -1 12.2466 97.6641 1 8 293
1965302N10102 1965 112 NI BB NOT_NAMED 1965-10-30 12:00:00 NR 12.4000 97.3000 main 141 141 __________O___ -1 12.4000 97.3000 1 8 294
1965302N10102 1965 112 NI BB NOT_NAMED 1965-10-30 15:00:00 NR 12.5644 96.9179 main 171 171 __________P___ -1 12.5644 96.9179 1 8 294
1965302N10102 1965 112 NI BB NOT_NAMED 1965-10-30 18:00:00 NR 12.7381 96.5206 main 200 195 __________P___ -1 12.7381 96.5206 1 9 294
1965302N10102 1965 112 NI BB NOT_NAMED 1965-10-30 21:00:00 NR 12.9177 96.1130 main 230 230 __________P___ -1 12.9177 96.1130 1 9 294
1965302N10102 1965 112 NI BB NOT_NAMED 1965-10-31 00:00:00 NR 13.1000 95.7000 main 265 __________O___ -1 13.1000 95.7000 1 9 294

Digital Typhoon Data and Search

About IBTrACS Database

This database is a web-friendly format of International Best Track Archive for Climate Stewardship (IBTrACS), a global best track data archive curated by NOAA dating back to 1842.

Updated: 2021-12-03